sensor_id;sensor_type;location;lat;lon;timestamp;pressure;altitude;pressure_sealevel;temperature;humidity
54816;BME280;40715;55.752;37.884;2024-02-28T00:02:04;100027.81;;;27.46;23.99
54816;BME280;40715;55.752;37.884;2024-02-28T00:04:31;100021.84;;;27.43;23.77
54816;BME280;40715;55.752;37.884;2024-02-28T00:06:58;100017.53;;;27.40;23.84
54816;BME280;40715;55.752;37.884;2024-02-28T00:09:25;100015.09;;;27.37;23.93
54816;BME280;40715;55.752;37.884;2024-02-28T00:11:52;100019.41;;;27.40;23.89
54816;BME280;40715;55.752;37.884;2024-02-28T00:14:19;100012.00;;;27.42;23.92
54816;BME280;40715;55.752;37.884;2024-02-28T00:16:47;100008.16;;;27.44;23.93
54816;BME280;40715;55.752;37.884;2024-02-28T00:19:14;100002.88;;;27.43;23.71
54816;BME280;40715;55.752;37.884;2024-02-28T00:21:42;100010.47;;;27.49;23.69
54816;BME280;40715;55.752;37.884;2024-02-28T00:24:09;100010.78;;;27.55;23.67
54816;BME280;40715;55.752;37.884;2024-02-28T00:26:39;100010.53;;;27.59;23.61
54816;BME280;40715;55.752;37.884;2024-02-28T00:29:07;100013.56;;;27.65;23.62
54816;BME280;40715;55.752;37.884;2024-02-28T00:31:34;100008.72;;;27.69;23.49
54816;BME280;40715;55.752;37.884;2024-02-28T00:34:01;100014.72;;;27.72;23.50
54816;BME280;40715;55.752;37.884;2024-02-28T00:36:28;100013.75;;;27.73;23.54
54816;BME280;40715;55.752;37.884;2024-02-28T00:38:59;100015.19;;;27.78;23.33
54816;BME280;40715;55.752;37.884;2024-02-28T00:41:26;100025.88;;;27.79;23.40
54816;BME280;40715;55.752;37.884;2024-02-28T00:43:53;100019.72;;;27.77;23.34
54816;BME280;40715;55.752;37.884;2024-02-28T00:46:20;100015.44;;;27.75;23.34
54816;BME280;40715;55.752;37.884;2024-02-28T00:48:47;100020.84;;;27.75;23.51
54816;BME280;40715;55.752;37.884;2024-02-28T00:51:14;100020.97;;;27.73;23.50
54816;BME280;40715;55.752;37.884;2024-02-28T00:53:41;100029.25;;;27.71;23.41
54816;BME280;40715;55.752;37.884;2024-02-28T00:56:09;100020.41;;;27.69;23.54
54816;BME280;40715;55.752;37.884;2024-02-28T00:58:36;100022.38;;;27.67;23.43
54816;BME280;40715;55.752;37.884;2024-02-28T01:01:05;100013.81;;;27.62;23.59
54816;BME280;40715;55.752;37.884;2024-02-28T01:03:32;100015.78;;;27.60;23.63
54816;BME280;40715;55.752;37.884;2024-02-28T01:05:59;100016.06;;;27.57;23.69
54816;BME280;40715;55.752;37.884;2024-02-28T01:08:27;100011.91;;;27.53;23.71
54816;BME280;40715;55.752;37.884;2024-02-28T01:10:54;100007.63;;;27.50;23.71
54816;BME280;40715;55.752;37.884;2024-02-28T01:13:22;100002.34;;;27.49;23.71
54816;BME280;40715;55.752;37.884;2024-02-28T01:15:49;100011.47;;;27.48;23.67
54816;BME280;40715;55.752;37.884;2024-02-28T01:18:17;100001.78;;;27.45;23.76
54816;BME280;40715;55.752;37.884;2024-02-28T01:20:44;100007.44;;;27.42;23.67
54816;BME280;40715;55.752;37.884;2024-02-28T01:23:11;100003.88;;;27.42;23.75
54816;BME280;40715;55.752;37.884;2024-02-28T01:25:38;100006.84;;;27.38;23.70
54816;BME280;40715;55.752;37.884;2024-02-28T01:28:05;99997.16;;;27.36;23.82
54816;BME280;40715;55.752;37.884;2024-02-28T01:30:32;100001.81;;;27.34;23.56
54816;BME280;40715;55.752;37.884;2024-02-28T01:32:59;99994.69;;;27.33;23.74
54816;BME280;40715;55.752;37.884;2024-02-28T01:35:26;99990.25;;;27.32;23.87
54816;BME280;40715;55.752;37.884;2024-02-28T01:37:53;99983.63;;;27.36;23.80
54816;BME280;40715;55.752;37.884;2024-02-28T01:40:20;99980.78;;;27.37;23.61
54816;BME280;40715;55.752;37.884;2024-02-28T01:42:48;99978.81;;;27.40;23.65
54816;BME280;40715;55.752;37.884;2024-02-28T01:45:15;99984.41;;;27.48;23.38
54816;BME280;40715;55.752;37.884;2024-02-28T01:47:42;99993.09;;;27.51;23.56
54816;BME280;40715;55.752;37.884;2024-02-28T01:50:10;99980.03;;;27.57;23.38
54816;BME280;40715;55.752;37.884;2024-02-28T01:52:39;99988.59;;;27.62;23.39
54816;BME280;40715;55.752;37.884;2024-02-28T01:55:06;99987.31;;;27.66;23.49
54816;BME280;40715;55.752;37.884;2024-02-28T01:57:33;99993.22;;;27.71;23.42
54816;BME280;40715;55.752;37.884;2024-02-28T02:00:06;99994.94;;;27.72;23.22
54816;BME280;40715;55.752;37.884;2024-02-28T02:02:35;99998.94;;;27.78;23.22
54816;BME280;40715;55.752;37.884;2024-02-28T02:05:02;99996.22;;;27.78;23.13
54816;BME280;40715;55.752;37.884;2024-02-28T02:07:31;99995.50;;;27.76;23.28
54816;BME280;40715;55.752;37.884;2024-02-28T02:09:58;99995.34;;;27.77;23.12
54816;BME280;40715;55.752;37.884;2024-02-28T02:12:25;99989.38;;;27.73;23.27
54816;BME280;40715;55.752;37.884;2024-02-28T02:14:52;99975.38;;;27.68;23.17
54816;BME280;40715;55.752;37.884;2024-02-28T02:17:20;99981.06;;;27.65;23.33
54816;BME280;40715;55.752;37.884;2024-02-28T02:19:47;99981.34;;;27.62;23.38
54816;BME280;40715;55.752;37.884;2024-02-28T02:22:14;99980.88;;;27.57;23.41
54816;BME280;40715;55.752;37.884;2024-02-28T02:24:41;99976.47;;;27.56;23.35
54816;BME280;40715;55.752;37.884;2024-02-28T02:27:08;99968.75;;;27.51;23.29
54816;BME280;40715;55.752;37.884;2024-02-28T02:29:35;99968.56;;;27.43;23.58
54816;BME280;40715;55.752;37.884;2024-02-28T02:32:03;99963.69;;;27.37;23.80
54816;BME280;40715;55.752;37.884;2024-02-28T02:34:30;99962.34;;;27.31;23.57
54816;BME280;40715;55.752;37.884;2024-02-28T02:36:57;99962.91;;;27.25;23.82
54816;BME280;40715;55.752;37.884;2024-02-28T02:39:24;99959.44;;;27.23;23.78
54816;BME280;40715;55.752;37.884;2024-02-28T02:41:51;99962.56;;;27.18;23.61
54816;BME280;40715;55.752;37.884;2024-02-28T02:44:18;99962.22;;;27.12;23.83
54816;BME280;40715;55.752;37.884;2024-02-28T02:46:45;99959.53;;;27.12;23.95
54816;BME280;40715;55.752;37.884;2024-02-28T02:49:12;99955.22;;;27.09;23.83
54816;BME280;40715;55.752;37.884;2024-02-28T02:51:39;99959.38;;;27.13;24.42
54816;BME280;40715;55.752;37.884;2024-02-28T02:54:09;99954.13;;;27.12;25.30
54816;BME280;40715;55.752;37.884;2024-02-28T02:56:36;99955.00;;;27.12;25.94
54816;BME280;40715;55.752;37.884;2024-02-28T02:59:03;99946.75;;;27.14;26.68
54816;BME280;40715;55.752;37.884;2024-02-28T03:01:31;99954.72;;;27.15;26.93
54816;BME280;40715;55.752;37.884;2024-02-28T03:03:58;99962.91;;;27.25;27.31
54816;BME280;40715;55.752;37.884;2024-02-28T03:06:25;99962.50;;;27.30;27.30
54816;BME280;40715;55.752;37.884;2024-02-28T03:09:05;99959.75;;;27.41;27.33
54816;BME280;40715;55.752;37.884;2024-02-28T03:11:34;99964.59;;;27.47;27.41
54816;BME280;40715;55.752;37.884;2024-02-28T03:14:04;99960.06;;;27.58;27.49
54816;BME280;40715;55.752;37.884;2024-02-28T03:16:32;99956.25;;;27.60;27.52
54816;BME280;40715;55.752;37.884;2024-02-28T03:18:59;99969.25;;;27.66;27.43
54816;BME280;40715;55.752;37.884;2024-02-28T03:21:26;99966.41;;;27.68;27.66
54816;BME280;40715;55.752;37.884;2024-02-28T03:23:53;99976.38;;;27.67;27.66
54816;BME280;40715;55.752;37.884;2024-02-28T03:26:20;99971.56;;;27.71;27.72
54816;BME280;40715;55.752;37.884;2024-02-28T03:28:47;99974.25;;;27.71;27.74
54816;BME280;40715;55.752;37.884;2024-02-28T03:31:14;99969.69;;;27.71;27.84
54816;BME280;40715;55.752;37.884;2024-02-28T03:33:41;99965.25;;;27.70;27.84
54816;BME280;40715;55.752;37.884;2024-02-28T03:36:08;99960.88;;;27.69;27.75
54816;BME280;40715;55.752;37.884;2024-02-28T03:38:35;99958.28;;;27.68;27.77
54816;BME280;40715;55.752;37.884;2024-02-28T03:41:03;99949.00;;;27.61;27.57
54816;BME280;40715;55.752;37.884;2024-02-28T03:43:30;99955.97;;;27.63;27.69
54816;BME280;40715;55.752;37.884;2024-02-28T03:45:58;99950.84;;;27.60;27.59
54816;BME280;40715;55.752;37.884;2024-02-28T03:48:25;99952.84;;;27.58;27.57
54816;BME280;40715;55.752;37.884;2024-02-28T03:50:52;99946.41;;;27.49;27.52
54816;BME280;40715;55.752;37.884;2024-02-28T03:53:19;99943.09;;;27.46;27.61
54816;BME280;40715;55.752;37.884;2024-02-28T03:55:46;99949.06;;;27.40;27.62
54816;BME280;40715;55.752;37.884;2024-02-28T03:58:14;99936.88;;;27.34;27.59
54816;BME280;40715;55.752;37.884;2024-02-28T04:00:41;99944.41;;;27.30;27.54
54816;BME280;40715;55.752;37.884;2024-02-28T04:03:11;99941.97;;;27.27;27.67
54816;BME280;40715;55.752;37.884;2024-02-28T04:05:38;99940.56;;;27.33;27.77
54816;BME280;40715;55.752;37.884;2024-02-28T04:08:06;99934.19;;;27.34;27.62
54816;BME280;40715;55.752;37.884;2024-02-28T04:10:33;99952.47;;;27.42;27.59
54816;BME280;40715;55.752;37.884;2024-02-28T04:13:00;99953.06;;;27.45;27.60
54816;BME280;40715;55.752;37.884;2024-02-28T04:15:28;99954.50;;;27.49;27.82
54816;BME280;40715;55.752;37.884;2024-02-28T04:17:56;99956.94;;;27.52;27.86
54816;BME280;40715;55.752;37.884;2024-02-28T04:20:23;99962.94;;;27.56;28.00
54816;BME280;40715;55.752;37.884;2024-02-28T04:22:50;99962.84;;;27.67;27.81
54816;BME280;40715;55.752;37.884;2024-02-28T04:25:17;99964.28;;;27.71;27.81
54816;BME280;40715;55.752;37.884;2024-02-28T04:27:44;99963.75;;;27.78;27.65
54816;BME280;40715;55.752;37.884;2024-02-28T04:30:11;99960.16;;;27.77;27.49
54816;BME280;40715;55.752;37.884;2024-02-28T04:32:38;99969.03;;;27.79;27.74
54816;BME280;40715;55.752;37.884;2024-02-28T04:35:05;99955.88;;;27.75;27.38
54816;BME280;40715;55.752;37.884;2024-02-28T04:37:33;99963.59;;;27.79;27.28
54816;BME280;40715;55.752;37.884;2024-02-28T04:40:02;99962.31;;;27.83;27.18
54816;BME280;40715;55.752;37.884;2024-02-28T04:42:29;99967.75;;;27.93;27.28
54816;BME280;40715;55.752;37.884;2024-02-28T04:44:57;99968.25;;;27.98;27.08
54816;BME280;40715;55.752;37.884;2024-02-28T04:47:24;99964.28;;;28.02;27.06
54816;BME280;40715;55.752;37.884;2024-02-28T04:49:55;99969.25;;;28.07;27.17
54816;BME280;40715;55.752;37.884;2024-02-28T04:52:22;99961.00;;;28.09;26.81
54816;BME280;40715;55.752;37.884;2024-02-28T04:54:50;99963.00;;;28.06;26.83
54816;BME280;40715;55.752;37.884;2024-02-28T04:57:17;99962.56;;;28.01;26.44
54816;BME280;40715;55.752;37.884;2024-02-28T04:59:44;99960.97;;;27.99;26.32
54816;BME280;40715;55.752;37.884;2024-02-28T05:02:11;99947.81;;;27.94;26.27
54816;BME280;40715;55.752;37.884;2024-02-28T05:04:38;99949.09;;;27.90;26.29
54816;BME280;40715;55.752;37.884;2024-02-28T05:07:05;99948.09;;;27.91;26.19
54816;BME280;40715;55.752;37.884;2024-02-28T05:09:34;99942.84;;;27.89;26.24
54816;BME280;40715;55.752;37.884;2024-02-28T05:12:02;99943.50;;;27.82;26.17
54816;BME280;40715;55.752;37.884;2024-02-28T05:14:29;99951.94;;;27.88;26.28
54816;BME280;40715;55.752;37.884;2024-02-28T05:16:56;99952.53;;;27.92;26.17
54816;BME280;40715;55.752;37.884;2024-02-28T05:19:23;99961.66;;;27.91;26.27
54816;BME280;40715;55.752;37.884;2024-02-28T05:21:50;99959.50;;;27.95;26.23
54816;BME280;40715;55.752;37.884;2024-02-28T05:24:17;99960.97;;;27.99;26.34
54816;BME280;40715;55.752;37.884;2024-02-28T05:26:44;99957.13;;;28.01;25.98
54816;BME280;40715;55.752;37.884;2024-02-28T05:29:12;99966.56;;;28.07;25.95
54816;BME280;40715;55.752;37.884;2024-02-28T05:31:39;99963.72;;;28.09;25.90
54816;BME280;40715;55.752;37.884;2024-02-28T05:34:06;99955.28;;;28.12;25.76
54816;BME280;40715;55.752;37.884;2024-02-28T05:36:33;99956.75;;;28.16;25.68
54816;BME280;40715;55.752;37.884;2024-02-28T05:39:00;99950.19;;;28.18;25.58
54816;BME280;40715;55.752;37.884;2024-02-28T05:41:35;99951.34;;;28.26;25.50
54816;BME280;40715;55.752;37.884;2024-02-28T05:44:01;99956.19;;;28.32;25.55
54816;BME280;40715;55.752;37.884;2024-02-28T05:46:28;99953.78;;;28.38;25.24
54816;BME280;40715;55.752;37.884;2024-02-28T05:48:55;99957.47;;;28.47;25.22
54816;BME280;40715;55.752;37.884;2024-02-28T05:51:22;99959.50;;;28.55;25.07
54816;BME280;40715;55.752;37.884;2024-02-28T05:53:49;99959.53;;;28.65;24.83
54816;BME280;40715;55.752;37.884;2024-02-28T05:56:17;99958.53;;;28.75;24.93
54816;BME280;40715;55.752;37.884;2024-02-28T05:58:47;99958.50;;;28.85;24.83
54816;BME280;40715;55.752;37.884;2024-02-28T06:01:16;99959.66;;;28.92;24.53
54816;BME280;40715;55.752;37.884;2024-02-28T06:03:50;99956.94;;;29.02;24.28
54816;BME280;40715;55.752;37.884;2024-02-28T06:06:18;99954.50;;;29.09;24.17
54816;BME280;40715;55.752;37.884;2024-02-28T06:08:45;99958.63;;;29.13;24.15
54816;BME280;40715;55.752;37.884;2024-02-28T06:11:12;99956.31;;;29.18;24.04
54816;BME280;40715;55.752;37.884;2024-02-28T06:13:42;99953.31;;;29.21;24.03
54816;BME280;40715;55.752;37.884;2024-02-28T06:16:16;99958.44;;;29.34;23.80
54816;BME280;40715;55.752;37.884;2024-02-28T06:18:44;99955.00;;;29.42;23.64
54816;BME280;40715;55.752;37.884;2024-02-28T06:21:13;99955.84;;;29.42;23.48
54816;BME280;40715;55.752;37.884;2024-02-28T06:23:40;99967.66;;;29.51;23.47
54816;BME280;40715;55.752;37.884;2024-02-28T06:26:08;99957.84;;;29.50;23.54
54816;BME280;40715;55.752;37.884;2024-02-28T06:28:42;99964.91;;;29.61;23.27
54816;BME280;40715;55.752;37.884;2024-02-28T06:31:14;99969.34;;;29.62;23.22
54816;BME280;40715;55.752;37.884;2024-02-28T06:33:43;99946.50;;;29.65;23.06
54816;BME280;40715;55.752;37.884;2024-02-28T06:36:10;99955.75;;;29.72;22.95
54816;BME280;40715;55.752;37.884;2024-02-28T06:38:37;99954.28;;;29.77;23.24
54816;BME280;40715;55.752;37.884;2024-02-28T06:41:04;99962.13;;;29.81;22.90
54816;BME280;40715;55.752;37.884;2024-02-28T06:43:35;99971.88;;;29.83;22.96
54816;BME280;40715;55.752;37.884;2024-02-28T06:46:02;99976.00;;;29.87;22.81
54816;BME280;40715;55.752;37.884;2024-02-28T06:48:30;99980.97;;;29.92;22.61
54816;BME280;40715;55.752;37.884;2024-02-28T06:50:57;99977.50;;;30.00;22.89
54816;BME280;40715;55.752;37.884;2024-02-28T06:53:25;99976.19;;;30.04;22.81
54816;BME280;40715;55.752;37.884;2024-02-28T06:55:53;99982.97;;;30.18;22.51
54816;BME280;40715;55.752;37.884;2024-02-28T06:58:20;99980.63;;;30.23;22.31
54816;BME280;40715;55.752;37.884;2024-02-28T07:00:48;99990.03;;;30.28;22.20
54816;BME280;40715;55.752;37.884;2024-02-28T07:03:17;99978.56;;;30.35;22.46
54816;BME280;40715;55.752;37.884;2024-02-28T07:05:44;99985.41;;;30.39;22.21
54816;BME280;40715;55.752;37.884;2024-02-28T07:08:11;99979.53;;;30.43;22.03
54816;BME280;40715;55.752;37.884;2024-02-28T07:10:38;99979.94;;;30.49;22.09
54816;BME280;40715;55.752;37.884;2024-02-28T07:13:10;99980.47;;;30.52;21.89
54816;BME280;40715;55.752;37.884;2024-02-28T07:15:37;99976.75;;;30.53;21.68
54816;BME280;40715;55.752;37.884;2024-02-28T07:18:05;99971.69;;;30.58;21.67
54816;BME280;40715;55.752;37.884;2024-02-28T07:20:33;99979.56;;;30.61;22.07
54816;BME280;40715;55.752;37.884;2024-02-28T07:23:00;99980.91;;;30.66;21.69
54816;BME280;40715;55.752;37.884;2024-02-28T07:25:27;99982.63;;;30.67;21.71
54816;BME280;40715;55.752;37.884;2024-02-28T07:27:57;99987.47;;;30.73;21.85
54816;BME280;40715;55.752;37.884;2024-02-28T07:30:25;99983.41;;;30.77;21.37
54816;BME280;40715;55.752;37.884;2024-02-28T07:32:52;99982.97;;;30.81;21.47
54816;BME280;40715;55.752;37.884;2024-02-28T07:35:19;99982.47;;;30.86;21.33
54816;BME280;40715;55.752;37.884;2024-02-28T07:37:47;99982.16;;;30.89;21.59
54816;BME280;40715;55.752;37.884;2024-02-28T07:40:14;99989.00;;;30.93;21.60
54816;BME280;40715;55.752;37.884;2024-02-28T07:42:41;99986.66;;;30.98;21.00
54816;BME280;40715;55.752;37.884;2024-02-28T07:45:08;99988.34;;;30.99;21.42
54816;BME280;40715;55.752;37.884;2024-02-28T07:47:35;99994.53;;;31.02;21.17
54816;BME280;40715;55.752;37.884;2024-02-28T07:50:04;99992.34;;;31.05;21.15
54816;BME280;40715;55.752;37.884;2024-02-28T07:52:32;99990.19;;;31.09;21.12
54816;BME280;40715;55.752;37.884;2024-02-28T07:55:01;99989.84;;;31.12;20.97
54816;BME280;40715;55.752;37.884;2024-02-28T07:57:30;99984.41;;;31.12;21.11
54816;BME280;40715;55.752;37.884;2024-02-28T07:59:57;99988.84;;;31.13;21.22
54816;BME280;40715;55.752;37.884;2024-02-28T08:02:24;99984.41;;;31.12;21.33
54816;BME280;40715;55.752;37.884;2024-02-28T08:04:51;99974.69;;;31.09;21.21
54816;BME280;40715;55.752;37.884;2024-02-28T08:07:19;99982.69;;;31.11;21.31
54816;BME280;40715;55.752;37.884;2024-02-28T08:09:46;99984.41;;;31.12;20.88
54816;BME280;40715;55.752;37.884;2024-02-28T08:12:13;99972.97;;;31.08;21.10
54816;BME280;40715;55.752;37.884;2024-02-28T08:14:40;99962.97;;;31.09;20.72
54816;BME280;40715;55.752;37.884;2024-02-28T08:17:07;99961.97;;;31.10;20.71
54816;BME280;40715;55.752;37.884;2024-02-28T08:19:34;99971.97;;;31.09;20.98
54816;BME280;40715;55.752;37.884;2024-02-28T08:22:02;99987.47;;;31.09;20.85
54816;BME280;40715;55.752;37.884;2024-02-28T08:24:29;99970.25;;;31.08;20.73
54816;BME280;40715;55.752;37.884;2024-02-28T08:26:56;99975.41;;;31.11;20.45
54816;BME280;40715;55.752;37.884;2024-02-28T08:29:23;99975.56;;;31.10;20.46
54816;BME280;40715;55.752;37.884;2024-02-28T08:31:51;99973.53;;;31.12;20.17
54816;BME280;40715;55.752;37.884;2024-02-28T08:34:18;99988.84;;;31.13;20.51
54816;BME280;40715;55.752;37.884;2024-02-28T08:36:45;99977.81;;;31.14;20.18
54816;BME280;40715;55.752;37.884;2024-02-28T08:39:12;99966.75;;;31.16;20.05
54816;BME280;40715;55.752;37.884;2024-02-28T08:41:39;99966.28;;;31.21;19.98
54816;BME280;40715;55.752;37.884;2024-02-28T08:44:06;99968.66;;;31.24;20.10
54816;BME280;40715;55.752;37.884;2024-02-28T08:46:33;99968.03;;;31.30;20.10
54816;BME280;40715;55.752;37.884;2024-02-28T08:49:00;99959.38;;;31.35;19.66
54816;BME280;40715;55.752;37.884;2024-02-28T08:51:27;99954.16;;;31.41;19.42
54816;BME280;40715;55.752;37.884;2024-02-28T08:53:54;99952.66;;;31.47;19.76
54816;BME280;40715;55.752;37.884;2024-02-28T08:56:22;99958.47;;;31.52;19.64
54816;BME280;40715;55.752;37.884;2024-02-28T08:58:49;99957.88;;;31.58;19.66
54816;BME280;40715;55.752;37.884;2024-02-28T09:01:16;99951.38;;;31.59;19.41
54816;BME280;40715;55.752;37.884;2024-02-28T09:03:43;99948.50;;;31.61;19.29
54816;BME280;40715;55.752;37.884;2024-02-28T09:06:10;99937.59;;;31.61;19.35
54816;BME280;40715;55.752;37.884;2024-02-28T09:08:38;99944.69;;;31.54;19.42
54816;BME280;40715;55.752;37.884;2024-02-28T09:11:05;99940.00;;;31.38;19.31
54816;BME280;40715;55.752;37.884;2024-02-28T09:13:33;99937.88;;;31.23;19.40
54816;BME280;40715;55.752;37.884;2024-02-28T09:16:02;99923.88;;;31.10;19.50
54816;BME280;40715;55.752;37.884;2024-02-28T09:18:29;99940.25;;;31.00;19.99
54816;BME280;40715;55.752;37.884;2024-02-28T09:20:56;99935.59;;;30.92;20.04
54816;BME280;40715;55.752;37.884;2024-02-28T09:23:23;99932.69;;;30.86;19.75
54816;BME280;40715;55.752;37.884;2024-02-28T09:25:50;99922.56;;;30.78;19.93
54816;BME280;40715;55.752;37.884;2024-02-28T09:28:18;99929.50;;;30.72;19.83
54816;BME280;40715;55.752;37.884;2024-02-28T09:30:45;99925.69;;;30.65;20.03
54816;BME280;40715;55.752;37.884;2024-02-28T09:33:18;99936.03;;;30.61;20.10
54816;BME280;40715;55.752;37.884;2024-02-28T09:35:46;99930.38;;;30.55;19.89
54816;BME280;40715;55.752;37.884;2024-02-28T09:38:13;99932.84;;;30.48;20.23
54816;BME280;40715;55.752;37.884;2024-02-28T09:40:40;99926.16;;;30.42;20.44
54816;BME280;40715;55.752;37.884;2024-02-28T09:43:18;99927.78;;;30.35;20.13
54816;BME280;40715;55.752;37.884;2024-02-28T09:45:46;99920.41;;;30.27;20.54
54816;BME280;40715;55.752;37.884;2024-02-28T09:48:15;99933.28;;;30.25;20.35
54816;BME280;40715;55.752;37.884;2024-02-28T09:50:45;99930.34;;;30.19;20.82
54816;BME280;40715;55.752;37.884;2024-02-28T09:53:12;99930.78;;;30.14;20.73
54816;BME280;40715;55.752;37.884;2024-02-28T09:55:39;99933.13;;;30.09;20.54
54816;BME280;40715;55.752;37.884;2024-02-28T09:58:07;99933.03;;;30.01;20.68
54816;BME280;40715;55.752;37.884;2024-02-28T10:00:35;99936.91;;;29.98;20.70
54816;BME280;40715;55.752;37.884;2024-02-28T10:03:05;99933.81;;;29.93;20.96
54816;BME280;40715;55.752;37.884;2024-02-28T10:05:33;99927.81;;;29.89;21.14
54816;BME280;40715;55.752;37.884;2024-02-28T10:08:01;99925.72;;;29.83;20.92
54816;BME280;40715;55.752;37.884;2024-02-28T10:10:31;99925.41;;;29.76;21.10
54816;BME280;40715;55.752;37.884;2024-02-28T10:12:58;99938.16;;;29.76;21.16
54816;BME280;40715;55.752;37.884;2024-02-28T10:15:28;99926.88;;;29.71;21.10
54816;BME280;40715;55.752;37.884;2024-02-28T10:17:55;99939.88;;;29.67;21.01
54816;BME280;40715;55.752;37.884;2024-02-28T10:20:22;99931.03;;;29.65;21.27
54816;BME280;40715;55.752;37.884;2024-02-28T10:22:52;99933.19;;;29.61;21.35
54816;BME280;40715;55.752;37.884;2024-02-28T10:25:19;99934.75;;;29.64;21.23
54816;BME280;40715;55.752;37.884;2024-02-28T10:27:47;99933.91;;;29.64;21.68
54816;BME280;40715;55.752;37.884;2024-02-28T10:30:14;99926.75;;;29.63;21.75
54816;BME280;40715;55.752;37.884;2024-02-28T10:32:50;99919.50;;;29.63;21.79
54816;BME280;40715;55.752;37.884;2024-02-28T10:35:18;99918.63;;;29.63;22.12
54816;BME280;40715;55.752;37.884;2024-02-28T10:37:52;99926.91;;;29.61;21.75
54816;BME280;40715;55.752;37.884;2024-02-28T10:40:22;99928.78;;;29.60;22.12
54816;BME280;40715;55.752;37.884;2024-02-28T10:42:50;99927.22;;;29.58;22.29
54816;BME280;40715;55.752;37.884;2024-02-28T10:45:17;99919.22;;;29.56;21.96
54816;BME280;40715;55.752;37.884;2024-02-28T10:47:51;99916.50;;;29.56;22.22
54816;BME280;40715;55.752;37.884;2024-02-28T10:50:18;99922.09;;;29.55;22.23
54816;BME280;40715;55.752;37.884;2024-02-28T10:52:46;99919.97;;;29.49;21.94
54816;BME280;40715;55.752;37.884;2024-02-28T10:55:21;99923.84;;;29.46;22.38
54816;BME280;40715;55.752;37.884;2024-02-28T10:58:18;99937.22;;;29.57;21.82
54816;BME280;40715;55.752;37.884;2024-02-28T11:00:45;99942.44;;;29.41;22.06
54816;BME280;40715;55.752;37.884;2024-02-28T11:03:16;99927.75;;;29.34;22.37
54816;BME280;40715;55.752;37.884;2024-02-28T11:05:44;99922.47;;;29.32;22.40
54816;BME280;40715;55.752;37.884;2024-02-28T11:08:23;99925.34;;;29.31;22.16
54816;BME280;40715;55.752;37.884;2024-02-28T11:10:57;99929.19;;;29.28;22.26
54816;BME280;40715;55.752;37.884;2024-02-28T11:13:26;99922.19;;;29.25;22.37
54816;BME280;40715;55.752;37.884;2024-02-28T11:15:54;99929.50;;;29.25;22.37
54816;BME280;40715;55.752;37.884;2024-02-28T11:18:24;99908.63;;;29.25;22.33
54816;BME280;40715;55.752;37.884;2024-02-28T11:20:51;99902.50;;;29.23;22.53
54816;BME280;40715;55.752;37.884;2024-02-28T11:23:18;99883.63;;;29.22;22.19
54816;BME280;40715;55.752;37.884;2024-02-28T11:25:45;99882.91;;;29.20;22.10
54816;BME280;40715;55.752;37.884;2024-02-28T11:28:13;99900.78;;;29.13;22.10
54816;BME280;40715;55.752;37.884;2024-02-28T11:30:41;99908.91;;;29.13;22.26
54816;BME280;40715;55.752;37.884;2024-02-28T11:33:08;99898.94;;;29.13;22.22
54816;BME280;40715;55.752;37.884;2024-02-28T11:35:36;99883.22;;;29.17;22.20
54816;BME280;40715;55.752;37.884;2024-02-28T11:38:06;99882.78;;;29.12;22.46
54816;BME280;40715;55.752;37.884;2024-02-28T11:40:33;99881.78;;;29.13;22.39
54816;BME280;40715;55.752;37.884;2024-02-28T11:43:00;99877.25;;;29.13;22.39
54816;BME280;40715;55.752;37.884;2024-02-28T11:45:30;99877.38;;;29.12;22.48
54816;BME280;40715;55.752;37.884;2024-02-28T11:47:58;99884.94;;;29.18;22.46
54816;BME280;40715;55.752;37.884;2024-02-28T11:50:25;99890.34;;;29.18;22.53
54816;BME280;40715;55.752;37.884;2024-02-28T11:52:53;99885.78;;;29.18;22.58
54816;BME280;40715;55.752;37.884;2024-02-28T11:55:20;99885.09;;;29.16;22.80
54816;BME280;40715;55.752;37.884;2024-02-28T11:57:48;99878.34;;;29.20;22.67
54816;BME280;40715;55.752;37.884;2024-02-28T12:00:15;99883.06;;;29.18;22.58
54816;BME280;40715;55.752;37.884;2024-02-28T12:02:42;99883.94;;;29.19;22.73
54816;BME280;40715;55.752;37.884;2024-02-28T12:05:09;99883.38;;;29.15;22.72
54816;BME280;40715;55.752;37.884;2024-02-28T12:07:36;99877.78;;;29.17;22.73
54816;BME280;40715;55.752;37.884;2024-02-28T12:10:03;99883.50;;;29.14;22.52
54816;BME280;40715;55.752;37.884;2024-02-28T12:12:31;99876.38;;;29.13;22.53
54816;BME280;40715;55.752;37.884;2024-02-28T12:14:59;99870.81;;;29.04;22.74
54816;BME280;40715;55.752;37.884;2024-02-28T12:17:29;99876.41;;;29.03;22.70
54816;BME280;40715;55.752;37.884;2024-02-28T12:19:59;99876.69;;;29.00;22.89
54816;BME280;40715;55.752;37.884;2024-02-28T12:22:26;99884.84;;;29.00;23.09
54816;BME280;40715;55.752;37.884;2024-02-28T12:24:53;99869.69;;;28.97;23.31
54816;BME280;40715;55.752;37.884;2024-02-28T12:27:20;99881.44;;;28.98;23.60
54816;BME280;40715;55.752;37.884;2024-02-28T12:29:47;99878.72;;;28.98;23.58
54816;BME280;40715;55.752;37.884;2024-02-28T12:32:14;99873.72;;;28.93;24.15
54816;BME280;40715;55.752;37.884;2024-02-28T12:34:43;99873.00;;;28.91;24.06
54816;BME280;40715;55.752;37.884;2024-02-28T12:37:11;99871.28;;;28.90;23.92
54816;BME280;40715;55.752;37.884;2024-02-28T12:39:38;99872.44;;;28.87;23.95
54816;BME280;40715;55.752;37.884;2024-02-28T12:42:07;99870.91;;;28.85;23.97
54816;BME280;40715;55.752;37.884;2024-02-28T12:44:34;99871.59;;;28.87;23.75
54816;BME280;40715;55.752;37.884;2024-02-28T12:47:01;99867.31;;;28.84;23.84
54816;BME280;40715;55.752;37.884;2024-02-28T12:49:28;99865.63;;;28.83;24.02
54816;BME280;40715;55.752;37.884;2024-02-28T12:51:55;99873.88;;;28.82;23.95